Time;durP1;ratioP1;P1;durP2;ratioP2;P2;SDS_P1;SDS_P2;PMS_P1;PMS_P2;Temp;Humidity;BMP_temperature;BMP_pressure;BME280_temperature;BME280_humidity;BME280_pressure;Samples;Min_cycle;Max_cycle;Signal;HPM_P1;HPM_P2
2022/07/30 00:01:06;;;;;;;1.45;0.90;;;;;;;20.39;100.00;99913.12;1687874;83;21089;-53
2022/07/30 00:03:34;;;;;;;1.90;1.00;;;;;;;20.33;100.00;99914.47;1690363;83;21116;-53
2022/07/30 00:06:00;;;;;;;3.20;1.20;;;;;;;20.26;100.00;99915.99;1680574;83;21675;-55
2022/07/30 00:08:27;;;;;;;3.22;1.12;;;;;;;20.16;100.00;99906.84;1691177;83;21725;-53
2022/07/30 00:10:54;;;;;;;5.22;1.12;;;;;;;20.08;100.00;99910.73;1685227;83;21206;-54
2022/07/30 00:13:20;;;;;;;1.05;0.88;;;;;;;20.02;100.00;99914.86;1671077;83;21565;-55
2022/07/30 00:15:47;;;;;;;1.70;0.80;;;;;;;19.98;100.00;99912.53;1690714;83;21103;-53
2022/07/30 00:18:13;;;;;;;2.10;1.10;;;;;;;19.94;100.00;99909.67;1684874;84;21132;-53
2022/07/30 00:20:39;;;;;;;1.50;0.88;;;;;;;19.90;100.00;99901.39;1668260;83;21133;-53
2022/07/30 00:23:07;;;;;;;1.25;1.00;;;;;;;19.86;100.00;99904.86;1681823;83;21144;-54
2022/07/30 00:25:35;;;;;;;1.07;0.90;;;;;;;19.84;100.00;99909.58;1676296;84;21081;-55
2022/07/30 00:28:03;;;;;;;1.42;0.95;;;;;;;19.81;100.00;99904.89;1687073;83;21670;-53
2022/07/30 00:30:30;;;;;;;3.83;1.85;;;;;;;19.77;100.00;99898.80;1679702;84;21711;-53
2022/07/30 00:32:57;;;;;;;3.47;1.00;;;;;;;19.74;100.00;99898.18;1688673;83;21526;-53
2022/07/30 00:35:24;;;;;;;2.87;1.00;;;;;;;19.70;100.00;99898.08;1680518;84;21120;-53
2022/07/30 00:37:51;;;;;;;1.42;1.20;;;;;;;19.66;100.00;99891.99;1667564;83;21104;-54
2022/07/30 00:40:17;;;;;;;1.00;0.85;;;;;;;19.62;100.00;99894.13;1692158;83;21636;-53
2022/07/30 00:42:46;;;;;;;3.15;1.30;;;;;;;19.56;100.00;99897.34;1681824;84;21108;-53
2022/07/30 00:45:15;;;;;;;3.72;0.85;;;;;;;19.51;100.00;99893.28;1689594;83;21206;-53
2022/07/30 00:47:42;;;;;;;1.75;0.95;;;;;;;19.46;100.00;99887.31;1683655;84;21114;-54
2022/07/30 00:50:11;;;;;;;3.75;0.90;;;;;;;19.44;100.00;99884.70;1678172;83;21042;-54
2022/07/30 00:52:39;;;;;;;2.95;1.20;;;;;;;19.42;100.00;99888.05;1675780;84;21050;-52
2022/07/30 00:55:08;;;;;;;1.70;0.93;;;;;;;19.39;100.00;99882.86;1675987;84;21511;-53
2022/07/30 00:57:34;;;;;;;3.15;1.00;;;;;;;19.38;100.00;99885.71;1675529;84;21132;-53
2022/07/30 01:00:00;;;;;;;3.22;1.20;;;;;;;19.34;100.00;99880.13;1679067;83;21084;-53
2022/07/30 01:02:29;;;;;;;3.15;1.52;;;;;;;19.30;100.00;99882.25;1680409;84;21069;-52
2022/07/30 01:04:58;;;;;;;2.05;1.25;;;;;;;19.22;100.00;99879.28;1675727;84;21085;-53
2022/07/30 01:07:26;;;;;;;2.05;0.98;;;;;;;19.17;100.00;99872.83;1673040;84;22083;-55
2022/07/30 01:09:54;;;;;;;1.00;0.90;;;;;;;19.14;100.00;99877.69;1672971;83;21092;-55
2022/07/30 01:12:24;;;;;;;1.10;1.00;;;;;;;19.07;100.00;99875.05;1677638;84;20991;-55
2022/07/30 01:14:56;;;;;;;2.45;1.00;;;;;;;18.97;100.00;99873.56;1672120;84;21739;-55
2022/07/30 01:17:23;;;;;;;3.08;1.00;;;;;;;18.87;100.00;99873.47;1673494;83;21081;-55
2022/07/30 01:19:54;;;;;;;3.75;1.00;;;;;;;18.79;100.00;99866.89;1718461;82;21917;-55
2022/07/30 01:22:33;;;;;;;1.07;0.80;;;;;;;18.75;100.00;99871.71;1663987;84;21212;-55
2022/07/30 01:25:31;;;;;;;1.05;0.90;;;;;;;18.75;100.00;99873.56;1653962;85;21066;-55
2022/07/30 01:28:05;;;;;;;1.67;1.22;;;;;;;18.74;100.00;99874.55;1636650;85;21078;-55
2022/07/30 01:30:37;;;;;;;3.87;1.25;;;;;;;18.73;100.00;99870.95;1664775;84;21060;-55
2022/07/30 01:33:03;;;;;;;3.83;1.30;;;;;;;18.70;100.00;99869.86;1684713;82;21049;-55
2022/07/30 01:35:31;;;;;;;2.08;1.37;;;;;;;18.68;100.00;99866.38;1715834;82;21268;-55
2022/07/30 01:37:59;;;;;;;3.85;1.20;;;;;;;18.66;100.00;99859.30;1696025;82;21793;-55
2022/07/30 01:40:27;;;;;;;3.62;1.10;;;;;;;18.64;100.00;99858.55;1710964;82;21019;-55
2022/07/30 01:42:57;;;;;;;1.00;0.80;;;;;;;18.61;100.00;99865.63;1717255;82;21129;-55
2022/07/30 01:45:27;;;;;;;1.12;0.90;;;;;;;18.58;100.00;99859.92;1715083;81;21379;-55
2022/07/30 01:47:55;;;;;;;2.12;0.90;;;;;;;18.55;100.00;99856.03;1718406;82;21714;-55
2022/07/30 01:50:23;;;;;;;2.45;0.90;;;;;;;18.52;100.00;99853.08;1714747;82;21517;-55
2022/07/30 01:52:52;;;;;;;0.90;0.80;;;;;;;18.51;100.00;99850.47;1713759;82;21093;-55
2022/07/30 01:55:24;;;;;;;3.02;0.90;;;;;;;18.51;100.00;99850.47;1711817;81;21089;-55
2022/07/30 01:57:51;;;;;;;2.10;1.07;;;;;;;18.51;100.00;99841.80;1717779;82;21434;-55
2022/07/30 02:00:20;;;;;;;2.58;1.75;;;;;;;18.51;100.00;99854.55;1713750;82;21299;-55
2022/07/30 02:02:49;;;;;;;1.65;0.82;;;;;;;18.50;100.00;99855.53;1715016;82;21031;-55
2022/07/30 02:05:16;;;;;;;2.62;1.05;;;;;;;18.48;100.00;99849.33;1711244;81;21050;-55
2022/07/30 02:08:04;;;;;;;3.45;1.15;;;;;;;18.48;100.00;99850.70;1713409;82;21314;-55
2022/07/30 02:10:43;;;;;;;1.90;1.10;;;;;;;18.47;100.00;99848.95;1711595;82;21061;-55
2022/07/30 02:13:17;;;;;;;1.30;0.75;;;;;;;18.44;100.00;99855.54;1710489;81;22556;-55
2022/07/30 02:16:01;;;;;;;1.47;0.90;;;;;;;18.42;100.00;99847.10;1704514;82;22138;-55
2022/07/30 02:18:34;;;;;;;1.00;0.90;;;;;;;18.41;100.00;99849.45;1718223;81;21516;-55
2022/07/30 02:21:05;;;;;;;;;;;;;;;18.37;100.00;99853.42;1720071;82;20876;-55
2022/07/30 02:23:37;;;;;;;2.85;0.98;;;;;;;18.35;100.00;99856.27;1716239;81;20153;-55
2022/07/30 02:26:04;;;;;;;4.67;0.90;;;;;;;18.36;100.00;99850.32;1715314;82;21685;-55
2022/07/30 02:28:36;;;;;;;1.50;0.90;;;;;;;18.38;100.00;99852.41;1710779;82;20900;-55
2022/07/30 02:31:02;;;;;;;3.20;1.72;;;;;;;18.40;100.00;99856.75;1682796;82;20903;-55
2022/07/30 02:33:33;;;;;;;1.30;0.90;;;;;;;18.42;100.00;99849.83;1713598;82;20901;-54
2022/07/30 02:36:02;;;;;;;5.75;1.00;;;;;;;18.43;100.00;99852.93;1715870;82;20943;-55
2022/07/30 02:38:29;;;;;;;6.35;0.98;;;;;;;18.43;100.00;99857.02;1714170;82;21320;-55
2022/07/30 02:40:57;;;;;;;1.85;0.90;;;;;;;18.44;100.00;99856.91;1718469;81;20915;-55
2022/07/30 02:43:25;;;;;;;1.62;1.00;;;;;;;18.44;100.00;99858.76;1719813;82;20895;-55
2022/07/30 02:45:52;;;;;;;1.45;0.80;;;;;;;18.38;100.00;99855.13;1717748;82;20876;-54
2022/07/30 02:48:22;;;;;;;3.52;1.00;;;;;;;18.33;100.00;99859.59;1729656;82;21416;-55
2022/07/30 02:50:51;;;;;;;2.47;0.80;;;;;;;18.34;100.00;99861.83;1726229;80;21338;-55
2022/07/30 02:53:18;;;;;;;2.08;0.85;;;;;;;18.32;100.00;99859.22;1730726;82;20979;-55
2022/07/30 02:55:46;;;;;;;1.85;1.00;;;;;;;18.31;100.00;99867.02;1730698;82;20994;-55
2022/07/30 02:58:19;;;;;;;1.72;0.90;;;;;;;18.33;100.00;99864.17;1730568;81;21400;-55
2022/07/30 03:00:47;;;;;;;2.20;1.00;;;;;;;18.37;100.00;99858.88;1701210;82;20950;-54
2022/07/30 03:03:16;;;;;;;2.90;0.88;;;;;;;18.43;100.00;99865.19;1729403;82;21073;-55
2022/07/30 03:05:42;;;;;;;1.22;0.90;;;;;;;18.47;100.00;99863.95;1711932;82;21024;-54
2022/07/30 03:08:09;;;;;;;2.58;0.90;;;;;;;18.53;100.00;99862.13;1724939;80;21686;-55
2022/07/30 03:10:36;;;;;;;2.40;1.00;;;;;;;18.57;100.00;99870.45;1728454;82;21078;-55
2022/07/30 03:13:05;;;;;;;3.85;1.10;;;;;;;18.61;100.00;99863.78;1727272;82;21021;-55
2022/07/30 03:15:34;;;;;;;1.45;1.02;;;;;;;18.66;100.00;99868.84;1726339;82;21138;-55
2022/07/30 03:18:01;;;;;;;2.37;1.00;;;;;;;18.70;100.00;99864.91;1728930;80;21110;-55
2022/07/30 03:20:30;;;;;;;2.62;1.00;;;;;;;18.74;100.00;99870.47;1726556;82;21046;-55
2022/07/30 03:22:58;;;;;;;5.17;1.30;;;;;;;18.79;100.00;99875.95;1726392;82;21984;-55
2022/07/30 03:25:28;;;;;;;1.10;1.00;;;;;;;18.84;100.00;99874.20;1725126;81;21113;-55
2022/07/30 03:27:59;;;;;;;3.58;1.17;;;;;;;18.92;100.00;99874.94;1727953;82;22420;-55
2022/07/30 03:30:27;;;;;;;2.55;1.20;;;;;;;18.97;100.00;99876.82;1728373;82;21443;-54
2022/07/30 03:32:54;;;;;;;1.65;1.10;;;;;;;19.04;100.00;99868.51;1724973;82;21069;-55
2022/07/30 03:35:23;;;;;;;3.42;1.05;;;;;;;19.08;100.00;99868.61;1730315;80;21084;-55
2022/07/30 03:37:52;;;;;;;3.05;1.22;;;;;;;19.13;100.00;99866.39;1722573;82;21445;-55
2022/07/30 03:40:20;;;;;;;2.17;1.12;;;;;;;19.17;100.00;99868.73;1729183;82;21042;-55
2022/07/30 03:42:46;;;;;;;1.75;1.40;;;;;;;19.21;100.00;99873.45;1727891;82;21069;-55
2022/07/30 03:45:16;;;;;;;2.42;1.30;;;;;;;19.26;100.00;99875.30;1725644;81;21074;-55
2022/07/30 03:47:43;;;;;;;3.37;1.00;;;;;;;19.29;100.00;99873.69;1724956;82;21067;-55
2022/07/30 03:50:11;;;;;;;3.35;1.20;;;;;;;19.32;100.00;99876.14;1715463;82;21091;-55
2022/07/30 03:52:39;;;;;;;2.70;0.90;;;;;;;19.37;100.00;99878.52;1714401;81;21300;-55
2022/07/30 03:55:10;;;;;;;1.27;1.02;;;;;;;19.40;100.00;99872.78;1713131;82;21038;-55
2022/07/30 03:57:45;;;;;;;4.65;1.40;;;;;;;19.43;100.00;99875.27;1710084;82;21066;-55
2022/07/30 04:00:14;;;;;;;1.10;0.90;;;;;;;19.46;100.00;99875.89;1719733;82;21018;-55
2022/07/30 04:02:44;;;;;;;1.75;1.20;;;;;;;19.48;100.00;99879.37;1718607;82;21825;-54
2022/07/30 04:05:17;;;;;;;0.80;0.72;;;;;;;19.49;100.00;99882.98;1709525;82;20879;-55
2022/07/30 04:07:46;;;;;;;2.05;0.98;;;;;;;19.51;100.00;99877.77;1716016;82;21042;-55
2022/07/30 04:10:14;;;;;;;1.77;0.98;;;;;;;19.54;100.00;99875.28;1716594;82;21030;-55
2022/07/30 04:13:00;;;;;;;10.32;0.90;;;;;;;19.58;100.00;99873.52;1714361;81;21057;-55
2022/07/30 04:15:33;;;;;;;1.47;0.80;;;;;;;19.63;100.00;99874.03;1712696;82;21042;-55
2022/07/30 04:18:01;;;;;;;0.98;0.82;;;;;;;19.68;100.00;99874.99;1716016;81;21118;-55
2022/07/30 04:20:38;;;;;;;2.70;0.80;;;;;;;19.74;100.00;99873.59;1716236;81;20979;-56
2022/07/30 04:23:05;;;;;;;1.05;0.70;;;;;;;19.78;100.00;99873.72;1714373;82;21084;-56
2022/07/30 04:25:33;;;;;;;2.92;0.80;;;;;;;19.84;100.00;99863.64;1691408;82;21105;-56
2022/07/30 04:28:03;;;;;;;1.05;0.80;;;;;;;19.88;100.00;99861.90;1715047;82;21046;-56
2022/07/30 04:30:34;;;;;;;2.95;1.30;;;;;;;19.94;100.00;99859.13;1717781;82;21145;-56
2022/07/30 04:33:04;;;;;;;4.35;0.80;;;;;;;20.00;100.00;99862.70;1715565;82;21074;-56
2022/07/30 04:35:33;;;;;;;4.03;0.90;;;;;;;20.05;100.00;99861.83;1717020;82;21066;-57
2022/07/30 04:38:03;;;;;;;1.60;0.62;;;;;;;20.10;100.00;99860.05;1712649;81;21043;-56
2022/07/30 04:40:30;;;;;;;2.37;0.75;;;;;;;20.14;100.00;99868.37;1698436;82;21112;-57
2022/07/30 04:42:58;;;;;;;1.42;0.62;;;;;;;20.20;100.00;99862.37;1714712;82;21659;-56
2022/07/30 04:45:26;;;;;;;1.62;0.65;;;;;;;20.26;100.00;99860.45;1708610;82;21078;-56
2022/07/30 04:48:00;;;;;;;2.58;0.60;;;;;;;20.33;100.00;99862.53;1720824;81;21816;-55
2022/07/30 04:50:34;;;;;;;2.75;0.70;;;;;;;20.40;100.00;99857.45;1725481;82;21548;-55
2022/07/30 04:53:00;;;;;;;5.40;1.00;;;;;;;20.46;100.00;99858.77;1711596;82;21098;-56
2022/07/30 04:55:29;;;;;;;3.15;0.78;;;;;;;20.53;100.00;99864.06;1729533;81;21488;-56
2022/07/30 04:57:55;;;;;;;1.72;0.72;;;;;;;20.58;100.00;99858.58;1729767;80;21125;-56
2022/07/30 05:00:22;;;;;;;4.42;0.80;;;;;;;20.65;100.00;99861.13;1725685;82;21030;-56
2022/07/30 05:02:49;;;;;;;0.85;0.70;;;;;;;20.70;100.00;99858.84;1729991;82;21073;-56
2022/07/30 05:05:16;;;;;;;2.08;0.75;;;;;;;20.75;100.00;99853.86;1729090;82;21683;-56
2022/07/30 05:07:43;;;;;;;1.82;0.90;;;;;;;20.81;100.00;99856.53;1706394;82;21222;-57
2022/07/30 05:10:12;;;;;;;2.90;0.70;;;;;;;20.87;100.00;99855.98;1729181;82;21488;-56
2022/07/30 05:12:41;;;;;;;1.72;0.80;;;;;;;20.92;100.00;99850.11;1734799;82;20919;-56
2022/07/30 05:15:09;;;;;;;0.93;0.70;;;;;;;20.96;100.00;99854.29;1731890;80;20949;-56
2022/07/30 05:17:36;;;;;;;1.17;0.65;;;;;;;21.01;100.00;99858.34;1734965;82;20938;-57
2022/07/30 05:20:06;;;;;;;0.62;0.60;;;;;;;21.06;100.00;99853.84;1733611;82;21729;-56
2022/07/30 05:22:35;;;;;;;0.90;0.70;;;;;;;21.11;100.00;99857.88;1722009;82;21410;-57
2022/07/30 05:25:04;;;;;;;1.37;0.50;;;;;;;21.19;100.00;99850.88;1733571;80;20963;-56
2022/07/30 05:27:32;;;;;;;1.77;0.70;;;;;;;21.27;100.00;99853.28;1728975;82;20962;-55
2022/07/30 05:30:00;;;;;;;0.70;0.70;;;;;;;21.35;100.00;99860.83;1729487;82;20953;-55
2022/07/30 05:32:29;;;;;;;3.87;0.85;;;;;;;21.41;100.00;99863.87;1728653;80;20942;-56
2022/07/30 05:34:58;;;;;;;1.72;0.50;;;;;;;21.49;100.00;99865.40;1727893;80;21382;-57
2022/07/30 05:37:25;;;;;;;0.60;0.40;;;;;;;21.57;100.00;99866.56;1705713;82;20891;-56
2022/07/30 05:39:53;;;;;;;0.60;0.50;;;;;;;21.62;100.00;99861.02;1723333;81;20941;-56
2022/07/30 05:42:25;;;;;;;2.45;0.50;;;;;;;21.70;100.00;99865.27;1729126;80;21336;-55
2022/07/30 05:44:54;;;;;;;0.65;0.50;;;;;;;21.78;100.00;99859.95;1727741;82;22144;-56
2022/07/30 05:47:20;;;;;;;0.57;0.40;;;;;;;21.89;100.00;99863.06;1732832;81;20864;-55
2022/07/30 05:49:48;;;;;;;3.60;0.50;;;;;;;22.00;100.00;99868.45;1718654;82;21389;-54
2022/07/30 05:52:14;;;;;;;1.82;0.57;;;;;;;22.08;100.00;99867.23;1700586;82;21003;-55
2022/07/30 05:54:41;;;;;;;0.40;0.40;;;;;;;22.13;100.00;99860.80;1694665;82;21002;-55
2022/07/30 05:57:26;;;;;;;1.57;0.40;;;;;;;22.18;100.00;99863.98;1719094;82;21743;-55
2022/07/30 05:59:52;;;;;;;3.70;0.55;;;;;;;22.24;100.00;99857.91;1716095;82;21053;-54
2022/07/30 06:02:22;;;;;;;5.35;0.60;;;;;;;22.28;100.00;99859.88;1688022;81;21049;-54
2022/07/30 06:04:57;;;;;;;0.93;0.40;;;;;;;22.33;100.00;99853.94;1704232;82;21074;-56
2022/07/30 06:07:24;;;;;;;0.98;0.50;;;;;;;22.37;100.00;99849.91;1720087;81;21481;-56
2022/07/30 06:09:58;;;;;;;2.58;0.42;;;;;;;22.41;100.00;99858.18;1721368;81;21113;-56
2022/07/30 06:12:22;;;;;;;9.63;0.50;;;;;;;22.44;100.00;99857.39;1716382;82;21116;-56
2022/07/30 06:14:49;;;;;;;1.22;0.40;;;;;;;22.46;100.00;99851.23;1713257;82;21059;-56
2022/07/30 06:17:18;;;;;;;1.65;0.50;;;;;;;22.50;100.00;99845.83;1712491;82;21187;-56
2022/07/30 06:20:04;;;;;;;2.75;0.50;;;;;;;22.54;100.00;99849.16;1709335;81;21120;-57
2022/07/30 06:22:33;;;;;;;1.27;0.53;;;;;;;22.58;100.00;99845.95;1710863;82;21101;-55
2022/07/30 06:25:02;;;;;;;1.45;0.40;;;;;;;22.61;100.00;99842.05;1711983;82;20884;-56
2022/07/30 06:27:32;;;;;;;0.50;0.40;;;;;;;22.63;100.00;99840.00;1712141;82;21081;-57
2022/07/30 06:30:00;;;;;;;2.15;0.40;;;;;;;22.65;100.00;99840.22;1712391;81;21098;-57
2022/07/30 06:32:28;;;;;;;1.02;0.40;;;;;;;22.68;100.00;99843.69;1714312;82;21929;-56
2022/07/30 06:34:55;;;;;;;1.87;0.40;;;;;;;22.72;100.00;99843.73;1711961;82;21851;-56
2022/07/30 06:37:22;;;;;;;1.87;0.40;;;;;;;22.78;100.00;99840.45;1714779;81;21105;-56
2022/07/30 06:39:50;;;;;;;1.10;0.40;;;;;;;22.87;100.00;99850.02;1714089;82;21335;-58
2022/07/30 06:42:20;;;;;;;1.95;0.40;;;;;;;22.96;100.00;99840.89;1714866;82;21469;-57
2022/07/30 06:44:58;;;;;;;2.25;0.45;;;;;;;23.06;100.00;99842.20;1709661;82;22291;-58
2022/07/30 06:47:27;;;;;;;2.37;0.50;;;;;;;23.17;100.00;99842.02;1712820;81;21754;-57
2022/07/30 06:49:56;;;;;;;0.68;0.40;;;;;;;23.27;100.00;99829.61;1712270;81;21121;-56
2022/07/30 06:52:23;;;;;;;2.25;0.42;;;;;;;23.38;100.00;99839.02;1712741;81;21063;-56
2022/07/30 06:54:51;;;;;;;1.10;0.40;;;;;;;23.47;100.00;99839.98;1708491;82;21074;-55
2022/07/30 06:57:21;;;;;;;0.80;0.50;;;;;;;23.57;100.00;99843.03;1716947;81;21378;-56
2022/07/30 06:59:47;;;;;;;1.40;0.40;;;;;;;23.67;100.00;99839.72;1713529;82;21961;-56
2022/07/30 07:02:19;;;;;;;16.50;1.27;;;;;;;23.78;100.00;99840.52;1707877;82;21132;-56
2022/07/30 07:04:54;;;;;;;0.88;0.50;;;;;;;23.88;100.00;99844.94;1713079;82;21113;-56
2022/07/30 07:07:22;;;;;;;0.75;0.50;;;;;;;23.97;100.00;99841.25;1678259;83;21121;-56
2022/07/30 07:09:49;;;;;;;2.25;0.35;;;;;;;24.07;100.00;99839.25;1672873;84;21555;-56
2022/07/30 07:12:35;;;;;;;1.25;0.50;;;;;;;24.18;100.00;99844.16;1678146;84;21196;-55
2022/07/30 07:15:05;;;;;;;0.65;0.40;;;;;;;24.28;100.00;99846.35;1675434;83;21355;-56
2022/07/30 07:17:31;;;;;;;8.28;0.60;;;;;;;24.36;100.00;99838.16;1673805;84;21086;-56
2022/07/30 07:19:59;;;;;;;1.17;0.40;;;;;;;24.43;100.00;99831.00;1674527;84;21128;-56
2022/07/30 07:22:26;;;;;;;0.98;0.50;;;;;;;24.51;100.00;99834.67;1673637;84;21848;-56
2022/07/30 07:24:52;;;;;;;1.77;0.40;;;;;;;24.59;100.00;99827.49;1676292;84;22107;-57
2022/07/30 07:27:21;;;;;;;1.15;0.40;;;;;;;24.66;100.00;99832.22;1676632;84;21544;-56
2022/07/30 07:29:50;;;;;;;0.50;0.30;;;;;;;24.73;100.00;99828.30;1672735;83;21910;-56
2022/07/30 07:32:16;;;;;;;0.60;0.30;;;;;;;24.82;100.00;99821.81;1675232;83;21067;-56
2022/07/30 07:34:43;;;;;;;2.00;0.50;;;;;;;24.91;100.00;99818.59;1675169;83;21127;-55
2022/07/30 07:37:10;;;;;;;1.85;0.40;;;;;;;25.00;100.00;99830.04;1680702;83;21385;-57
2022/07/30 07:39:37;;;;;;;2.12;0.40;;;;;;;25.07;100.00;99820.95;1682230;83;20969;-56
2022/07/30 07:42:05;;;;;;;2.30;0.40;;;;;;;25.16;100.00;99823.23;1653661;83;21112;-56
2022/07/30 07:44:32;;;;;;;2.02;0.40;;;;;;;25.22;100.00;99822.05;1678976;83;21121;-56
2022/07/30 07:47:00;;;;;;;2.30;0.40;;;;;;;25.31;100.00;99822.08;1673461;83;21551;-56
2022/07/30 07:49:29;;;;;;;1.25;0.33;;;;;;;25.38;100.00;99812.98;1714851;81;21087;-56
2022/07/30 07:51:57;;;;;;;6.35;0.37;;;;;;;25.46;100.00;99817.14;1721610;81;20958;-57
2022/07/30 07:54:24;;;;;;;1.70;0.35;;;;;;;25.55;100.00;99822.16;1712039;81;21141;-56
2022/07/30 07:56:56;;;;;;;3.67;0.30;;;;;;;25.62;100.00;99821.86;1716614;81;20994;-57
2022/07/30 07:59:25;;;;;;;0.40;0.30;;;;;;;25.70;100.00;99814.12;1716987;81;21756;-56
2022/07/30 08:01:52;;;;;;;0.95;0.30;;;;;;;25.78;100.00;99811.37;1720749;81;21811;-58
2022/07/30 08:04:38;;;;;;;2.92;0.30;;;;;;;25.87;100.00;99822.25;1714941;81;21001;-56
2022/07/30 08:07:12;;;;;;;11.93;0.70;;;;;;;25.96;100.00;99817.61;1718203;81;20939;-55
2022/07/30 08:09:58;;;;;;;0.60;0.40;;;;;;;26.02;100.00;99816.95;1718092;81;21046;-57
2022/07/30 08:12:28;;;;;;;1.65;0.40;;;;;;;26.08;100.00;99807.98;1715498;81;21014;-56
2022/07/30 08:15:02;;;;;;;0.45;0.37;;;;;;;26.14;100.00;99803.66;1718103;81;21817;-57
2022/07/30 08:17:45;;;;;;;0.30;0.30;;;;;;;26.22;100.00;99795.39;1722878;81;21445;-56
2022/07/30 08:20:15;;;;;;;3.85;0.40;;;;;;;26.29;100.00;99797.83;1716430;81;20968;-56
2022/07/30 08:22:43;;;;;;;0.53;0.40;;;;;;;26.35;100.00;99799.91;1720620;81;20958;-57
2022/07/30 08:25:10;;;;;;;0.53;0.37;;;;;;;26.42;100.00;99804.21;1716237;81;20985;-56
2022/07/30 08:27:38;;;;;;;1.52;0.40;;;;;;;26.47;100.00;99799.88;1726019;81;20912;-56
2022/07/30 08:30:08;;;;;;;1.07;0.40;;;;;;;26.54;100.00;99798.69;1721847;81;21009;-56
2022/07/30 08:32:35;;;;;;;0.57;0.40;;;;;;;26.60;100.00;99800.22;1725109;81;20856;-55
2022/07/30 08:35:04;;;;;;;1.27;0.40;;;;;;;26.66;100.00;99793.13;1724066;81;20954;-56
2022/07/30 08:37:31;;;;;;;0.72;0.37;;;;;;;26.74;100.00;99788.97;1707021;81;20970;-56
2022/07/30 08:39:57;;;;;;;1.45;0.33;;;;;;;26.79;100.00;99790.70;1720421;81;21082;-56
2022/07/30 08:42:26;;;;;;;0.68;0.40;;;;;;;26.84;100.00;99779.97;1723260;81;20970;-56
2022/07/30 08:44:53;;;;;;;2.35;0.30;;;;;;;26.90;100.00;99782.01;1720159;81;20954;-55
2022/07/30 08:47:22;;;;;;;0.53;0.30;;;;;;;26.97;100.00;99778.91;1716933;81;20919;-57
2022/07/30 08:50:08;;;;;;;1.27;0.37;;;;;;;27.03;100.00;99780.11;1730586;80;20915;-57
2022/07/30 08:52:38;;;;;;;1.87;0.35;;;;;;;27.08;100.00;99777.66;1743926;80;20971;-57
2022/07/30 08:55:08;;;;;;;4.50;0.30;;;;;;;27.11;100.00;99773.17;1711041;82;21298;-57
2022/07/30 08:57:37;;;;;;;0.40;0.30;;;;;;;27.13;100.00;99778.00;1738876;80;21621;-57
2022/07/30 09:00:08;;;;;;;1.30;0.30;;;;;;;27.16;100.00;99771.23;1733533;80;21555;-57
2022/07/30 09:03:44;;;;;;;1.35;0.35;;;;;;;27.23;100.00;99762.56;1781884;78;22642;-57
2022/07/30 09:06:12;;;;;;;2.35;0.30;;;;;;;27.23;100.00;99761.19;1755099;80;20981;-56
2022/07/30 09:08:41;;;;;;;3.42;0.30;;;;;;;27.27;100.00;99765.32;1720328;81;21267;-56
2022/07/30 09:11:09;;;;;;;0.62;0.40;;;;;;;27.31;100.00;99765.28;1719740;81;20997;-57
2022/07/30 09:13:38;;;;;;;8.28;0.55;;;;;;;27.36;100.00;99752.67;1679474;83;21054;-56
2022/07/30 09:16:05;;;;;;;1.90;0.40;;;;;;;27.45;100.00;99760.39;1710479;82;21057;-55
2022/07/30 09:18:36;;;;;;;2.20;0.40;;;;;;;27.53;100.00;99760.34;1714962;82;21121;-56
2022/07/30 09:21:24;;;;;;;1.90;0.50;;;;;;;27.59;100.00;99749.09;1718924;82;21859;-55
2022/07/30 09:24:03;;;;;;;1.77;0.42;;;;;;;27.66;100.00;99744.55;1712921;81;21024;-55
2022/07/30 09:26:56;;;;;;;0.53;0.30;;;;;;;27.73;100.00;99756.06;1655892;81;21096;-55
2022/07/30 09:29:26;;;;;;;0.45;0.30;;;;;;;27.80;100.00;99761.23;1685559;81;21247;-54
2022/07/30 09:32:13;;;;;;;13.43;0.60;;;;;;;27.89;100.00;99757.87;1704906;82;20970;-56
2022/07/30 09:34:41;;;;;;;0.50;0.40;;;;;;;27.98;100.00;99754.00;1683397;81;21151;-56
2022/07/30 09:37:17;;;;;;;0.40;0.35;;;;;;;28.06;100.00;99753.94;1699036;83;21586;-56
2022/07/30 09:39:57;;;;;;;0.55;0.30;;;;;;;28.13;100.00;99755.42;1703324;83;21085;-56
2022/07/30 09:42:27;;;;;;;3.30;0.60;;;;;;;28.21;100.00;99749.84;1720558;81;21037;-56
2022/07/30 09:45:10;;;;;;;1.50;0.30;;;;;;;28.30;100.00;99752.02;1721618;81;21087;-56
2022/07/30 09:47:43;;;;;;;0.33;0.30;;;;;;;28.38;100.00;99754.19;1726828;81;21150;-56
2022/07/30 09:50:12;;;;;;;2.47;0.40;;;;;;;28.45;100.00;99762.06;1722283;81;21084;-56
2022/07/30 09:52:42;;;;;;;1.62;0.37;;;;;;;28.49;100.00;99746.81;1693793;81;21029;-56
2022/07/30 09:55:10;;;;;;;0.78;0.40;;;;;;;28.48;100.00;99751.15;1721560;81;21032;-56
2022/07/30 09:57:56;;;;;;;0.93;0.40;;;;;;;28.50;100.00;99751.27;1711292;81;21610;-56
2022/07/30 10:00:25;;;;;;;2.77;0.60;;;;;;;28.56;100.00;99738.08;1694328;82;21741;-56
2022/07/30 10:02:54;;;;;;;74.72;5.58;;;;;;;28.59;100.00;99743.73;1689310;82;21560;-56
2022/07/30 10:05:53;;;;;;;3.65;0.40;;;;;;;28.59;100.00;99748.75;1685327;83;20974;-56
2022/07/30 10:08:20;;;;;;;0.68;0.30;;;;;;;28.59;100.00;99752.91;1668670;83;21029;-56
2022/07/30 10:10:48;;;;;;;4.22;0.50;;;;;;;28.55;100.00;99755.73;1639503;83;21567;-56
2022/07/30 10:13:15;;;;;;;5.75;0.80;;;;;;;28.53;100.00;99748.14;1671075;83;21149;-56
2022/07/30 10:15:42;;;;;;;0.80;0.40;;;;;;;28.52;100.00;99749.70;1666601;83;21129;-55
2022/07/30 10:18:10;;;;;;;1.95;0.33;;;;;;;28.50;100.00;99747.12;1606751;85;21033;-56
2022/07/30 10:20:54;;;;;;;1.57;0.30;;;;;;;28.48;100.00;99745.09;1669579;83;21956;-56
2022/07/30 10:23:31;;;;;;;2.58;0.33;;;;;;;28.46;100.00;99743.55;1671721;83;21102;-56
2022/07/30 10:26:18;;;;;;;0.50;0.33;;;;;;;28.45;100.00;99754.28;1590921;88;21134;-57
2022/07/30 10:29:04;;;;;;;0.60;0.40;;;;;;;28.44;100.00;99753.94;1651823;85;21094;-56
2022/07/30 10:31:32;;;;;;;3.62;0.40;;;;;;;28.43;100.00;99751.70;1684174;81;21085;-56
2022/07/30 10:34:00;;;;;;;0.62;0.40;;;;;;;28.45;100.00;99748.75;1711370;81;21065;-55
2022/07/30 10:36:26;;;;;;;0.40;0.30;;;;;;;28.48;100.00;99745.61;1720071;81;21030;-56
2022/07/30 10:38:53;;;;;;;1.65;0.45;;;;;;;28.49;100.00;99742.66;1717227;81;21078;-56
2022/07/30 10:41:40;;;;;;;2.25;0.35;;;;;;;28.49;100.00;99740.41;1716528;81;21042;-56
2022/07/30 10:44:51;;;;;;;0.55;0.40;;;;;;;28.48;100.00;99741.45;1720000;81;21414;-56
2022/07/30 10:47:17;;;;;;;1.00;0.40;;;;;;;28.48;100.00;99738.16;1721355;81;21085;-56
2022/07/30 10:50:13;;;;;;;1.30;0.35;;;;;;;28.48;100.00;99733.15;1720638;81;21428;-55
2022/07/30 10:52:59;;;;;;;0.50;0.33;;;;;;;28.50;100.00;99732.41;1719216;81;21148;-56
2022/07/30 10:55:33;;;;;;;0.57;0.40;;;;;;;28.55;100.00;99728.05;1714637;81;21475;-55
2022/07/30 10:58:11;;;;;;;2.33;0.37;;;;;;;28.63;100.00;99723.46;1720158;81;21148;-56
2022/07/30 11:00:57;;;;;;;8.88;0.50;;;;;;;28.69;100.00;99722.16;1718306;81;21141;-56
2022/07/30 11:03:27;;;;;;;1.00;0.37;;;;;;;28.75;100.00;99725.55;1720252;81;21081;-56
2022/07/30 11:06:17;;;;;;;3.70;0.40;;;;;;;28.83;100.00;99724.66;1717765;81;21057;-57
2022/07/30 11:08:44;;;;;;;2.20;0.45;;;;;;;28.89;100.00;99718.34;1723321;81;21059;-55
2022/07/30 11:11:24;;;;;;;3.42;0.40;;;;;;;28.93;100.00;99712.20;1721201;81;21089;-56
2022/07/30 11:13:56;;;;;;;1.67;0.50;;;;;;;28.94;100.00;99708.38;1716950;81;21062;-57
2022/07/30 11:16:36;;;;;;;0.53;0.30;;;;;;;28.94;100.00;99704.75;1722800;81;21074;-57
2022/07/30 11:19:23;;;;;;;2.42;0.40;;;;;;;28.95;100.00;99693.48;1717752;81;21113;-57
2022/07/30 11:21:49;;;;;;;1.00;0.37;;;;;;;28.99;100.00;99696.73;1717625;81;21089;-57
2022/07/30 11:24:43;;;;;;;2.05;0.30;;;;;;;29.06;100.00;99702.36;1694389;81;21520;-56
2022/07/30 11:27:35;;;;;;;1.22;0.40;;;;;;;29.09;100.00;99701.45;1714513;81;21069;-57
2022/07/30 11:30:19;;;;;;;0.93;0.40;;;;;;;29.10;100.00;99701.76;1718033;81;21030;-57
2022/07/30 11:32:51;;;;;;;0.50;0.40;;;;;;;29.19;100.00;99692.80;1719864;81;21559;-57
2022/07/30 11:35:31;;;;;;;;;;;;;;;29.19;100.00;99692.80;1718095;81;21484;-57
2022/07/30 11:38:10;;;;;;;1.07;0.30;;;;;;;29.24;100.00;99693.96;1721295;81;20208;-55
2022/07/30 11:40:50;;;;;;;0.30;0.30;;;;;;;29.27;100.00;99693.55;1718639;81;20946;-56
2022/07/30 11:43:31;;;;;;;2.52;0.40;;;;;;;29.30;100.00;99688.15;1721858;81;20970;-57
2022/07/30 11:46:10;;;;;;;0.90;0.40;;;;;;;29.28;100.00;99693.02;1722747;81;21242;-56